sensor_id;sensor_type;location;lat;lon;timestamp;P1;durP1;ratioP1;P2;durP2;ratioP2
78887;SDS011;68276;49.326;8.690;2023-03-04T00:01:40;14.33;;;4.87;;
78887;SDS011;68276;49.326;8.690;2023-03-04T00:04:06;15.48;;;5.20;;
78887;SDS011;68276;49.326;8.690;2023-03-04T00:06:32;15.95;;;5.80;;
78887;SDS011;68276;49.326;8.690;2023-03-04T00:08:58;14.23;;;4.80;;
78887;SDS011;68276;49.326;8.690;2023-03-04T00:11:23;16.63;;;5.00;;
78887;SDS011;68276;49.326;8.690;2023-03-04T00:13:49;14.68;;;5.05;;
78887;SDS011;68276;49.326;8.690;2023-03-04T00:16:15;16.08;;;4.88;;
78887;SDS011;68276;49.326;8.690;2023-03-04T00:18:40;16.02;;;5.53;;
78887;SDS011;68276;49.326;8.690;2023-03-04T00:21:06;15.10;;;5.20;;
78887;SDS011;68276;49.326;8.690;2023-03-04T00:23:31;13.82;;;5.10;;
78887;SDS011;68276;49.326;8.690;2023-03-04T00:25:57;15.50;;;5.67;;
78887;SDS011;68276;49.326;8.690;2023-03-04T00:28:22;14.35;;;5.05;;
78887;SDS011;68276;49.326;8.690;2023-03-04T00:30:48;16.13;;;5.60;;
78887;SDS011;68276;49.326;8.690;2023-03-04T00:33:13;14.93;;;5.07;;
78887;SDS011;68276;49.326;8.690;2023-03-04T00:35:39;14.95;;;4.82;;
78887;SDS011;68276;49.326;8.690;2023-03-04T00:38:05;16.33;;;4.88;;
78887;SDS011;68276;49.326;8.690;2023-03-04T00:40:30;16.33;;;5.20;;
78887;SDS011;68276;49.326;8.690;2023-03-04T00:42:56;13.77;;;4.43;;
78887;SDS011;68276;49.326;8.690;2023-03-04T00:45:21;14.10;;;4.43;;
78887;SDS011;68276;49.326;8.690;2023-03-04T00:47:46;13.70;;;4.67;;
78887;SDS011;68276;49.326;8.690;2023-03-04T00:50:12;15.33;;;5.03;;
78887;SDS011;68276;49.326;8.690;2023-03-04T00:52:37;14.23;;;4.97;;
78887;SDS011;68276;49.326;8.690;2023-03-04T00:55:03;15.60;;;5.70;;
78887;SDS011;68276;49.326;8.690;2023-03-04T00:57:28;15.70;;;4.50;;
78887;SDS011;68276;49.326;8.690;2023-03-04T00:59:54;13.87;;;4.90;;
78887;SDS011;68276;49.326;8.690;2023-03-04T01:02:19;15.73;;;4.90;;
78887;SDS011;68276;49.326;8.690;2023-03-04T01:04:45;16.70;;;4.67;;
78887;SDS011;68276;49.326;8.690;2023-03-04T01:07:11;15.82;;;5.68;;
78887;SDS011;68276;49.326;8.690;2023-03-04T01:09:38;16.13;;;5.27;;
78887;SDS011;68276;49.326;8.690;2023-03-04T01:12:03;13.93;;;5.13;;
78887;SDS011;68276;49.326;8.690;2023-03-04T01:14:28;13.88;;;4.90;;
78887;SDS011;68276;49.326;8.690;2023-03-04T01:16:54;15.98;;;5.50;;
78887;SDS011;68276;49.326;8.690;2023-03-04T01:19:19;14.77;;;5.10;;
78887;SDS011;68276;49.326;8.690;2023-03-04T01:21:45;15.70;;;5.57;;
78887;SDS011;68276;49.326;8.690;2023-03-04T01:24:11;15.05;;;4.90;;
78887;SDS011;68276;49.326;8.690;2023-03-04T01:26:36;15.60;;;5.13;;
78887;SDS011;68276;49.326;8.690;2023-03-04T01:29:02;15.73;;;5.23;;
78887;SDS011;68276;49.326;8.690;2023-03-04T01:33:54;15.97;;;4.60;;
78887;SDS011;68276;49.326;8.690;2023-03-04T01:36:19;15.80;;;5.68;;
78887;SDS011;68276;49.326;8.690;2023-03-04T01:38:44;15.27;;;5.05;;
78887;SDS011;68276;49.326;8.690;2023-03-04T01:41:10;18.90;;;5.80;;
78887;SDS011;68276;49.326;8.690;2023-03-04T01:43:37;16.50;;;5.82;;
78887;SDS011;68276;49.326;8.690;2023-03-04T01:46:03;13.85;;;5.15;;
78887;SDS011;68276;49.326;8.690;2023-03-04T01:48:30;22.42;;;5.90;;
78887;SDS011;68276;49.326;8.690;2023-03-04T01:51:00;15.20;;;5.95;;
78887;SDS011;68276;49.326;8.690;2023-03-04T01:53:28;15.23;;;5.45;;
78887;SDS011;68276;49.326;8.690;2023-03-04T01:55:56;18.75;;;6.22;;
78887;SDS011;68276;49.326;8.690;2023-03-04T01:58:25;18.35;;;5.82;;
78887;SDS011;68276;49.326;8.690;2023-03-04T02:00:54;15.30;;;5.10;;
78887;SDS011;68276;49.326;8.690;2023-03-04T02:03:20;19.73;;;5.78;;
78887;SDS011;68276;49.326;8.690;2023-03-04T02:05:49;16.85;;;5.57;;
78887;SDS011;68276;49.326;8.690;2023-03-04T02:08:17;15.95;;;5.88;;
78887;SDS011;68276;49.326;8.690;2023-03-04T02:10:44;18.38;;;6.35;;
78887;SDS011;68276;49.326;8.690;2023-03-04T02:13:10;17.65;;;5.72;;
78887;SDS011;68276;49.326;8.690;2023-03-04T02:15:36;20.85;;;6.53;;
78887;SDS011;68276;49.326;8.690;2023-03-04T02:18:03;16.27;;;5.70;;
78887;SDS011;68276;49.326;8.690;2023-03-04T02:20:49;14.85;;;5.65;;
78887;SDS011;68276;49.326;8.690;2023-03-04T02:31:04;14.70;;;5.30;;
78887;SDS011;68276;49.326;8.690;2023-03-04T02:33:29;18.03;;;5.80;;
78887;SDS011;68276;49.326;8.690;2023-03-04T02:35:55;16.85;;;5.88;;
78887;SDS011;68276;49.326;8.690;2023-03-04T02:38:20;17.83;;;5.82;;
78887;SDS011;68276;49.326;8.690;2023-03-04T02:40:47;17.42;;;5.88;;
78887;SDS011;68276;49.326;8.690;2023-03-04T02:43:15;16.98;;;5.45;;
78887;SDS011;68276;49.326;8.690;2023-03-04T02:50:38;14.52;;;4.97;;
78887;SDS011;68276;49.326;8.690;2023-03-04T02:53:07;20.13;;;5.57;;
78887;SDS011;68276;49.326;8.690;2023-03-04T02:55:32;15.77;;;5.18;;
78887;SDS011;68276;49.326;8.690;2023-03-04T02:57:58;14.88;;;5.35;;
78887;SDS011;68276;49.326;8.690;2023-03-04T03:00:23;17.88;;;5.85;;
78887;SDS011;68276;49.326;8.690;2023-03-04T03:02:49;17.60;;;5.32;;
78887;SDS011;68276;49.326;8.690;2023-03-04T03:05:15;18.90;;;6.25;;
78887;SDS011;68276;49.326;8.690;2023-03-04T03:07:41;18.75;;;5.82;;
78887;SDS011;68276;49.326;8.690;2023-03-04T03:10:06;18.13;;;6.13;;
78887;SDS011;68276;49.326;8.690;2023-03-04T03:12:32;20.02;;;6.85;;
78887;SDS011;68276;49.326;8.690;2023-03-04T03:14:57;16.45;;;6.00;;
78887;SDS011;68276;49.326;8.690;2023-03-04T03:17:23;16.30;;;5.30;;
78887;SDS011;68276;49.326;8.690;2023-03-04T03:19:48;17.10;;;5.93;;
78887;SDS011;68276;49.326;8.690;2023-03-04T03:22:13;17.23;;;5.93;;
78887;SDS011;68276;49.326;8.690;2023-03-04T03:24:39;17.03;;;5.17;;
78887;SDS011;68276;49.326;8.690;2023-03-04T03:27:04;17.20;;;6.30;;
78887;SDS011;68276;49.326;8.690;2023-03-04T03:29:29;15.03;;;5.60;;
78887;SDS011;68276;49.326;8.690;2023-03-04T03:31:55;17.33;;;5.10;;
78887;SDS011;68276;49.326;8.690;2023-03-04T03:34:20;15.73;;;5.40;;
78887;SDS011;68276;49.326;8.690;2023-03-04T03:36:47;17.10;;;6.07;;
78887;SDS011;68276;49.326;8.690;2023-03-04T03:39:12;16.05;;;6.05;;
78887;SDS011;68276;49.326;8.690;2023-03-04T03:41:39;17.77;;;6.28;;
78887;SDS011;68276;49.326;8.690;2023-03-04T03:44:05;17.05;;;5.50;;
78887;SDS011;68276;49.326;8.690;2023-03-04T03:46:30;18.80;;;5.40;;
78887;SDS011;68276;49.326;8.690;2023-03-04T03:48:55;17.13;;;6.23;;
78887;SDS011;68276;49.326;8.690;2023-03-04T03:51:21;18.57;;;5.57;;
78887;SDS011;68276;49.326;8.690;2023-03-04T03:53:46;17.23;;;5.50;;
78887;SDS011;68276;49.326;8.690;2023-03-04T03:56:11;18.30;;;6.23;;
78887;SDS011;68276;49.326;8.690;2023-03-04T03:58:37;17.33;;;5.47;;
78887;SDS011;68276;49.326;8.690;2023-03-04T04:01:02;18.83;;;6.37;;
78887;SDS011;68276;49.326;8.690;2023-03-04T04:03:28;18.40;;;5.90;;
78887;SDS011;68276;49.326;8.690;2023-03-04T04:05:53;18.73;;;6.57;;
78887;SDS011;68276;49.326;8.690;2023-03-04T04:08:19;21.07;;;7.73;;
78887;SDS011;68276;49.326;8.690;2023-03-04T04:10:44;21.30;;;6.57;;
78887;SDS011;68276;49.326;8.690;2023-03-04T04:13:10;20.23;;;7.17;;
78887;SDS011;68276;49.326;8.690;2023-03-04T04:15:36;24.13;;;7.80;;
78887;SDS011;68276;49.326;8.690;2023-03-04T04:18:02;19.60;;;6.53;;
78887;SDS011;68276;49.326;8.690;2023-03-04T04:20:29;26.55;;;7.15;;
78887;SDS011;68276;49.326;8.690;2023-03-04T04:22:54;22.43;;;7.80;;
78887;SDS011;68276;49.326;8.690;2023-03-04T04:25:19;22.37;;;7.40;;
78887;SDS011;68276;49.326;8.690;2023-03-04T04:27:45;22.33;;;7.77;;
78887;SDS011;68276;49.326;8.690;2023-03-04T04:30:10;19.30;;;7.20;;
78887;SDS011;68276;49.326;8.690;2023-03-04T04:32:36;22.30;;;7.32;;
78887;SDS011;68276;49.326;8.690;2023-03-04T04:35:01;23.08;;;7.70;;
78887;SDS011;68276;49.326;8.690;2023-03-04T04:37:27;23.42;;;7.80;;
78887;SDS011;68276;49.326;8.690;2023-03-04T04:39:52;18.33;;;5.73;;
78887;SDS011;68276;49.326;8.690;2023-03-04T04:42:19;19.42;;;6.55;;
78887;SDS011;68276;49.326;8.690;2023-03-04T04:44:45;22.30;;;6.78;;
78887;SDS011;68276;49.326;8.690;2023-03-04T04:47:11;19.75;;;6.50;;
78887;SDS011;68276;49.326;8.690;2023-03-04T04:49:37;20.43;;;6.50;;
78887;SDS011;68276;49.326;8.690;2023-03-04T04:52:02;23.70;;;7.45;;
78887;SDS011;68276;49.326;8.690;2023-03-04T04:54:28;20.33;;;6.68;;
78887;SDS011;68276;49.326;8.690;2023-03-04T04:56:53;20.15;;;6.93;;
78887;SDS011;68276;49.326;8.690;2023-03-04T04:59:18;25.27;;;7.50;;
78887;SDS011;68276;49.326;8.690;2023-03-04T05:01:44;18.75;;;6.50;;
78887;SDS011;68276;49.326;8.690;2023-03-04T05:04:09;21.00;;;6.43;;
78887;SDS011;68276;49.326;8.690;2023-03-04T05:06:35;23.40;;;7.80;;
78887;SDS011;68276;49.326;8.690;2023-03-04T05:09:00;25.77;;;8.02;;
78887;SDS011;68276;49.326;8.690;2023-03-04T05:11:26;27.70;;;8.80;;
78887;SDS011;68276;49.326;8.690;2023-03-04T05:13:51;27.13;;;7.13;;
78887;SDS011;68276;49.326;8.690;2023-03-04T05:16:17;24.75;;;7.45;;
78887;SDS011;68276;49.326;8.690;2023-03-04T05:18:43;23.70;;;7.97;;
78887;SDS011;68276;49.326;8.690;2023-03-04T05:21:09;24.80;;;8.45;;
78887;SDS011;68276;49.326;8.690;2023-03-04T05:23:36;23.88;;;8.35;;
78887;SDS011;68276;49.326;8.690;2023-03-04T05:26:03;24.55;;;6.95;;
78887;SDS011;68276;49.326;8.690;2023-03-04T05:28:30;23.35;;;9.07;;
78887;SDS011;68276;49.326;8.690;2023-03-04T05:30:56;25.48;;;7.78;;
78887;SDS011;68276;49.326;8.690;2023-03-04T05:33:22;25.07;;;8.10;;
78887;SDS011;68276;49.326;8.690;2023-03-04T05:35:47;21.92;;;7.93;;
78887;SDS011;68276;49.326;8.690;2023-03-04T05:38:14;23.05;;;7.10;;
78887;SDS011;68276;49.326;8.690;2023-03-04T05:40:41;22.58;;;8.07;;
78887;SDS011;68276;49.326;8.690;2023-03-04T05:43:07;31.48;;;8.52;;
78887;SDS011;68276;49.326;8.690;2023-03-04T05:45:33;24.00;;;7.40;;
78887;SDS011;68276;49.326;8.690;2023-03-04T05:47:58;21.10;;;7.85;;
78887;SDS011;68276;49.326;8.690;2023-03-04T05:50:24;21.35;;;7.50;;
78887;SDS011;68276;49.326;8.690;2023-03-04T05:52:50;21.25;;;7.30;;
78887;SDS011;68276;49.326;8.690;2023-03-04T05:55:15;22.08;;;7.20;;
78887;SDS011;68276;49.326;8.690;2023-03-04T05:57:41;24.58;;;8.40;;
78887;SDS011;68276;49.326;8.690;2023-03-04T06:00:07;25.10;;;8.25;;
78887;SDS011;68276;49.326;8.690;2023-03-04T06:02:36;22.88;;;7.53;;
78887;SDS011;68276;49.326;8.690;2023-03-04T06:05:02;22.23;;;8.15;;
78887;SDS011;68276;49.326;8.690;2023-03-04T06:07:28;26.42;;;9.05;;
78887;SDS011;68276;49.326;8.690;2023-03-04T06:09:53;26.90;;;9.13;;
78887;SDS011;68276;49.326;8.690;2023-03-04T06:12:19;25.73;;;8.83;;
78887;SDS011;68276;49.326;8.690;2023-03-04T06:14:44;23.40;;;7.65;;
78887;SDS011;68276;49.326;8.690;2023-03-04T06:17:10;25.77;;;9.07;;
78887;SDS011;68276;49.326;8.690;2023-03-04T06:19:35;19.00;;;7.00;;
78887;SDS011;68276;49.326;8.690;2023-03-04T06:22:02;27.58;;;9.07;;
78887;SDS011;68276;49.326;8.690;2023-03-04T06:24:28;27.27;;;9.48;;
78887;SDS011;68276;49.326;8.690;2023-03-04T06:26:53;32.53;;;9.03;;
78887;SDS011;68276;49.326;8.690;2023-03-04T06:29:19;27.70;;;9.00;;
78887;SDS011;68276;49.326;8.690;2023-03-04T06:31:45;31.58;;;10.45;;
78887;SDS011;68276;49.326;8.690;2023-03-04T06:34:10;30.93;;;10.73;;
78887;SDS011;68276;49.326;8.690;2023-03-04T06:36:35;31.00;;;11.18;;
78887;SDS011;68276;49.326;8.690;2023-03-04T06:39:02;29.85;;;10.20;;
78887;SDS011;68276;49.326;8.690;2023-03-04T06:41:28;32.88;;;10.55;;
78887;SDS011;68276;49.326;8.690;2023-03-04T06:43:54;33.80;;;9.75;;
78887;SDS011;68276;49.326;8.690;2023-03-04T06:46:19;38.77;;;12.43;;
78887;SDS011;68276;49.326;8.690;2023-03-04T06:48:45;37.40;;;9.95;;
78887;SDS011;68276;49.326;8.690;2023-03-04T06:51:11;34.03;;;11.07;;
78887;SDS011;68276;49.326;8.690;2023-03-04T06:53:36;30.93;;;10.57;;
78887;SDS011;68276;49.326;8.690;2023-03-04T06:56:03;33.88;;;11.20;;
78887;SDS011;68276;49.326;8.690;2023-03-04T06:58:29;34.78;;;11.13;;
78887;SDS011;68276;49.326;8.690;2023-03-04T07:00:54;29.52;;;10.10;;
78887;SDS011;68276;49.326;8.690;2023-03-04T07:03:20;33.77;;;11.10;;
78887;SDS011;68276;49.326;8.690;2023-03-04T07:05:46;32.53;;;11.18;;
78887;SDS011;68276;49.326;8.690;2023-03-04T07:08:11;36.35;;;11.98;;
78887;SDS011;68276;49.326;8.690;2023-03-04T07:10:37;38.45;;;12.98;;
78887;SDS011;68276;49.326;8.690;2023-03-04T07:13:03;34.05;;;11.15;;
78887;SDS011;68276;49.326;8.690;2023-03-04T07:15:28;36.47;;;12.40;;
78887;SDS011;68276;49.326;8.690;2023-03-04T07:17:54;33.38;;;10.55;;
78887;SDS011;68276;49.326;8.690;2023-03-04T07:20:19;31.10;;;12.07;;
78887;SDS011;68276;49.326;8.690;2023-03-04T07:22:45;38.88;;;11.98;;
78887;SDS011;68276;49.326;8.690;2023-03-04T07:25:11;32.85;;;10.85;;
78887;SDS011;68276;49.326;8.690;2023-03-04T07:27:37;39.47;;;12.32;;
78887;SDS011;68276;49.326;8.690;2023-03-04T07:30:05;32.42;;;11.23;;
78887;SDS011;68276;49.326;8.690;2023-03-04T07:32:32;35.90;;;11.50;;
78887;SDS011;68276;49.326;8.690;2023-03-04T07:34:59;38.35;;;11.95;;
78887;SDS011;68276;49.326;8.690;2023-03-04T07:37:25;42.95;;;11.90;;
78887;SDS011;68276;49.326;8.690;2023-03-04T07:39:50;38.30;;;12.57;;
78887;SDS011;68276;49.326;8.690;2023-03-04T07:42:15;34.07;;;12.57;;
78887;SDS011;68276;49.326;8.690;2023-03-04T07:44:41;40.53;;;13.27;;
78887;SDS011;68276;49.326;8.690;2023-03-04T07:47:06;42.00;;;13.53;;
78887;SDS011;68276;49.326;8.690;2023-03-04T07:49:32;44.60;;;13.38;;
78887;SDS011;68276;49.326;8.690;2023-03-04T07:51:57;39.70;;;12.93;;
78887;SDS011;68276;49.326;8.690;2023-03-04T07:54:26;35.10;;;11.10;;
78887;SDS011;68276;49.326;8.690;2023-03-04T07:56:52;35.90;;;12.30;;
78887;SDS011;68276;49.326;8.690;2023-03-04T07:59:17;35.95;;;11.88;;
78887;SDS011;68276;49.326;8.690;2023-03-04T08:01:43;41.65;;;14.15;;
78887;SDS011;68276;49.326;8.690;2023-03-04T08:04:08;38.10;;;12.23;;
78887;SDS011;68276;49.326;8.690;2023-03-04T08:06:34;41.40;;;12.48;;
78887;SDS011;68276;49.326;8.690;2023-03-04T08:09:01;44.90;;;13.98;;
78887;SDS011;68276;49.326;8.690;2023-03-04T08:11:29;41.60;;;14.13;;
78887;SDS011;68276;49.326;8.690;2023-03-04T08:13:55;40.42;;;13.55;;
78887;SDS011;68276;49.326;8.690;2023-03-04T08:16:21;38.55;;;13.27;;
78887;SDS011;68276;49.326;8.690;2023-03-04T08:18:50;40.38;;;13.43;;
78887;SDS011;68276;49.326;8.690;2023-03-04T08:21:18;52.20;;;14.73;;
78887;SDS011;68276;49.326;8.690;2023-03-04T08:23:45;37.45;;;12.93;;
78887;SDS011;68276;49.326;8.690;2023-03-04T08:26:12;38.88;;;13.98;;
78887;SDS011;68276;49.326;8.690;2023-03-04T08:28:43;42.65;;;12.75;;
78887;SDS011;68276;49.326;8.690;2023-03-04T08:31:10;42.08;;;13.35;;
78887;SDS011;68276;49.326;8.690;2023-03-04T08:33:39;41.70;;;13.40;;
78887;SDS011;68276;49.326;8.690;2023-03-04T08:36:05;43.80;;;13.02;;
78887;SDS011;68276;49.326;8.690;2023-03-04T08:38:31;41.15;;;12.90;;
78887;SDS011;68276;49.326;8.690;2023-03-04T08:40:57;41.42;;;13.38;;
78887;SDS011;68276;49.326;8.690;2023-03-04T08:43:23;39.25;;;12.18;;
78887;SDS011;68276;49.326;8.690;2023-03-04T08:45:50;36.55;;;12.75;;
78887;SDS011;68276;49.326;8.690;2023-03-04T08:48:19;39.28;;;11.98;;
78887;SDS011;68276;49.326;8.690;2023-03-04T08:50:46;42.20;;;13.10;;
78887;SDS011;68276;49.326;8.690;2023-03-04T08:53:12;45.80;;;13.70;;
78887;SDS011;68276;49.326;8.690;2023-03-04T08:55:38;40.20;;;13.35;;
78887;SDS011;68276;49.326;8.690;2023-03-04T08:58:04;41.55;;;12.95;;
78887;SDS011;68276;49.326;8.690;2023-03-04T09:00:30;41.92;;;13.20;;
78887;SDS011;68276;49.326;8.690;2023-03-04T09:02:56;44.00;;;12.23;;
78887;SDS011;68276;49.326;8.690;2023-03-04T09:05:22;35.13;;;12.53;;
78887;SDS011;68276;49.326;8.690;2023-03-04T09:07:47;40.03;;;11.70;;
78887;SDS011;68276;49.326;8.690;2023-03-04T09:10:13;42.90;;;15.52;;
78887;SDS011;68276;49.326;8.690;2023-03-04T09:12:38;37.25;;;13.00;;
78887;SDS011;68276;49.326;8.690;2023-03-04T09:15:04;42.65;;;13.02;;
78887;SDS011;68276;49.326;8.690;2023-03-04T09:17:30;39.65;;;14.05;;
78887;SDS011;68276;49.326;8.690;2023-03-04T09:19:56;42.70;;;12.77;;
78887;SDS011;68276;49.326;8.690;2023-03-04T09:22:22;44.50;;;14.10;;
78887;SDS011;68276;49.326;8.690;2023-03-04T09:24:47;41.27;;;13.30;;
78887;SDS011;68276;49.326;8.690;2023-03-04T09:27:12;41.70;;;13.60;;
78887;SDS011;68276;49.326;8.690;2023-03-04T09:29:38;37.20;;;12.30;;
78887;SDS011;68276;49.326;8.690;2023-03-04T09:32:03;46.00;;;14.52;;
78887;SDS011;68276;49.326;8.690;2023-03-04T09:34:29;41.30;;;11.88;;
78887;SDS011;68276;49.326;8.690;2023-03-04T09:36:54;45.43;;;12.83;;
78887;SDS011;68276;49.326;8.690;2023-03-04T09:39:20;44.28;;;14.20;;
78887;SDS011;68276;49.326;8.690;2023-03-04T09:41:46;40.33;;;13.43;;
78887;SDS011;68276;49.326;8.690;2023-03-04T09:44:25;43.35;;;13.27;;
78887;SDS011;68276;49.326;8.690;2023-03-04T09:46:54;40.15;;;13.75;;
78887;SDS011;68276;49.326;8.690;2023-03-04T09:49:23;41.90;;;14.43;;
78887;SDS011;68276;49.326;8.690;2023-03-04T09:57:22;37.03;;;13.23;;
78887;SDS011;68276;49.326;8.690;2023-03-04T10:02:36;35.78;;;12.80;;
78887;SDS011;68276;49.326;8.690;2023-03-04T10:05:23;44.70;;;14.27;;
78887;SDS011;68276;49.326;8.690;2023-03-04T10:07:57;41.42;;;13.50;;
78887;SDS011;68276;49.326;8.690;2023-03-04T10:10:34;41.88;;;12.95;;
78887;SDS011;68276;49.326;8.690;2023-03-04T10:13:03;40.72;;;13.57;;
78887;SDS011;68276;49.326;8.690;2023-03-04T10:15:37;37.92;;;12.10;;
78887;SDS011;68276;49.326;8.690;2023-03-04T10:18:17;42.05;;;14.80;;
78887;SDS011;68276;49.326;8.690;2023-03-04T10:23:30;44.30;;;13.38;;
78887;SDS011;68276;49.326;8.690;2023-03-04T10:25:56;44.05;;;14.13;;
78887;SDS011;68276;49.326;8.690;2023-03-04T10:28:30;39.75;;;12.75;;
78887;SDS011;68276;49.326;8.690;2023-03-04T10:31:11;42.20;;;13.18;;
78887;SDS011;68276;49.326;8.690;2023-03-04T10:33:41;45.80;;;14.70;;
78887;SDS011;68276;49.326;8.690;2023-03-04T10:38:58;41.97;;;13.48;;
78887;SDS011;68276;49.326;8.690;2023-03-04T10:41:27;37.63;;;13.00;;
78887;SDS011;68276;49.326;8.690;2023-03-04T10:46:41;40.67;;;12.45;;
78887;SDS011;68276;49.326;8.690;2023-03-04T10:49:09;38.85;;;13.80;;
78887;SDS011;68276;49.326;8.690;2023-03-04T10:51:49;37.58;;;13.05;;
78887;SDS011;68276;49.326;8.690;2023-03-04T10:56:59;39.88;;;14.48;;
78887;SDS011;68276;49.326;8.690;2023-03-04T10:59:43;39.53;;;13.63;;
78887;SDS011;68276;49.326;8.690;2023-03-04T11:07:35;39.80;;;12.55;;
78887;SDS011;68276;49.326;8.690;2023-03-04T11:10:10;44.22;;;13.95;;
78887;SDS011;68276;49.326;8.690;2023-03-04T11:12:42;38.35;;;12.77;;
78887;SDS011;68276;49.326;8.690;2023-03-04T11:15:23;41.10;;;13.98;;
78887;SDS011;68276;49.326;8.690;2023-03-04T11:18:13;40.58;;;13.23;;
78887;SDS011;68276;49.326;8.690;2023-03-04T11:20:44;43.63;;;15.15;;
78887;SDS011;68276;49.326;8.690;2023-03-04T11:23:16;36.83;;;13.70;;
78887;SDS011;68276;49.326;8.690;2023-03-04T11:25:50;36.35;;;13.18;;
78887;SDS011;68276;49.326;8.690;2023-03-04T11:30:56;35.65;;;14.35;;
78887;SDS011;68276;49.326;8.690;2023-03-04T11:33:40;39.38;;;14.52;;
78887;SDS011;68276;49.326;8.690;2023-03-04T11:38:40;38.80;;;13.43;;
78887;SDS011;68276;49.326;8.690;2023-03-04T11:44:06;39.47;;;13.15;;
78887;SDS011;68276;49.326;8.690;2023-03-04T11:49:46;40.00;;;13.23;;
78887;SDS011;68276;49.326;8.690;2023-03-04T11:55:00;33.75;;;11.90;;
78887;SDS011;68276;49.326;8.690;2023-03-04T12:03:00;35.38;;;12.35;;
78887;SDS011;68276;49.326;8.690;2023-03-04T12:08:17;29.20;;;11.02;;
78887;SDS011;68276;49.326;8.690;2023-03-04T12:11:24;37.83;;;13.27;;
78887;SDS011;68276;49.326;8.690;2023-03-04T12:17:17;37.45;;;12.45;;
78887;SDS011;68276;49.326;8.690;2023-03-04T12:25:54;34.97;;;12.32;;
78887;SDS011;68276;49.326;8.690;2023-03-04T12:42:58;31.10;;;11.40;;
78887;SDS011;68276;49.326;8.690;2023-03-04T12:48:24;29.75;;;10.90;;
78887;SDS011;68276;49.326;8.690;2023-03-04T12:51:11;32.38;;;11.43;;
78887;SDS011;68276;49.326;8.690;2023-03-04T12:53:52;30.27;;;10.48;;
78887;SDS011;68276;49.326;8.690;2023-03-04T12:59:13;27.27;;;10.60;;
78887;SDS011;68276;49.326;8.690;2023-03-04T13:07:02;22.88;;;6.97;;
78887;SDS011;68276;49.326;8.690;2023-03-04T13:10:06;23.35;;;8.52;;
78887;SDS011;68276;49.326;8.690;2023-03-04T13:12:29;21.35;;;8.95;;
78887;SDS011;68276;49.326;8.690;2023-03-04T13:38:31;25.77;;;9.70;;
78887;SDS011;68276;49.326;8.690;2023-03-04T13:43:25;23.60;;;8.50;;
78887;SDS011;68276;49.326;8.690;2023-03-04T13:45:53;23.42;;;9.23;;
78887;SDS011;68276;49.326;8.690;2023-03-04T13:48:29;24.88;;;9.02;;
78887;SDS011;68276;49.326;8.690;2023-03-04T13:51:01;27.40;;;8.93;;
78887;SDS011;68276;49.326;8.690;2023-03-04T13:53:40;23.42;;;7.80;;
78887;SDS011;68276;49.326;8.690;2023-03-04T13:56:09;25.50;;;8.20;;
78887;SDS011;68276;49.326;8.690;2023-03-04T13:58:42;24.85;;;7.80;;
78887;SDS011;68276;49.326;8.690;2023-03-04T14:01:19;23.15;;;8.10;;
78887;SDS011;68276;49.326;8.690;2023-03-04T14:03:49;25.83;;;8.82;;
78887;SDS011;68276;49.326;8.690;2023-03-04T14:08:43;35.22;;;10.95;;
78887;SDS011;68276;49.326;8.690;2023-03-04T14:11:11;22.65;;;9.27;;
78887;SDS011;68276;49.326;8.690;2023-03-04T14:13:39;22.15;;;9.32;;
78887;SDS011;68276;49.326;8.690;2023-03-04T14:16:05;23.60;;;7.60;;
78887;SDS011;68276;49.326;8.690;2023-03-04T14:18:31;43.65;;;14.82;;
78887;SDS011;68276;49.326;8.690;2023-03-04T14:20:57;27.73;;;10.23;;
78887;SDS011;68276;49.326;8.690;2023-03-04T14:23:28;20.92;;;7.93;;
78887;SDS011;68276;49.326;8.690;2023-03-04T14:26:12;52.15;;;21.30;;
78887;SDS011;68276;49.326;8.690;2023-03-04T14:31:14;19.02;;;7.43;;
78887;SDS011;68276;49.326;8.690;2023-03-04T14:33:45;27.00;;;9.45;;
78887;SDS011;68276;49.326;8.690;2023-03-04T14:36:15;24.77;;;9.38;;
78887;SDS011;68276;49.326;8.690;2023-03-04T14:38:43;23.55;;;8.18;;
78887;SDS011;68276;49.326;8.690;2023-03-04T14:41:17;29.50;;;8.73;;
78887;SDS011;68276;49.326;8.690;2023-03-04T14:46:14;25.23;;;8.57;;
78887;SDS011;68276;49.326;8.690;2023-03-04T14:48:52;28.02;;;8.73;;
78887;SDS011;68276;49.326;8.690;2023-03-04T14:54:06;25.52;;;8.77;;
78887;SDS011;68276;49.326;8.690;2023-03-04T14:56:48;25.67;;;8.85;;
78887;SDS011;68276;49.326;8.690;2023-03-04T14:59:14;20.67;;;8.48;;
78887;SDS011;68276;49.326;8.690;2023-03-04T15:01:39;23.67;;;8.13;;
78887;SDS011;68276;49.326;8.690;2023-03-04T15:04:06;22.85;;;8.73;;
78887;SDS011;68276;49.326;8.690;2023-03-04T15:06:34;23.88;;;9.07;;
78887;SDS011;68276;49.326;8.690;2023-03-04T15:17:26;27.38;;;7.85;;
78887;SDS011;68276;49.326;8.690;2023-03-04T15:25:00;26.50;;;8.27;;
78887;SDS011;68276;49.326;8.690;2023-03-04T15:27:27;25.63;;;8.35;;
78887;SDS011;68276;49.326;8.690;2023-03-04T15:29:54;23.75;;;8.05;;
78887;SDS011;68276;49.326;8.690;2023-03-04T15:32:26;27.13;;;8.43;;
78887;SDS011;68276;49.326;8.690;2023-03-04T15:34:54;22.00;;;8.38;;
78887;SDS011;68276;49.326;8.690;2023-03-04T15:37:21;27.95;;;9.57;;
78887;SDS011;68276;49.326;8.690;2023-03-04T15:39:49;24.02;;;8.98;;
78887;SDS011;68276;49.326;8.690;2023-03-04T15:42:15;23.90;;;8.27;;
78887;SDS011;68276;49.326;8.690;2023-03-04T15:44:41;24.05;;;8.18;;
78887;SDS011;68276;49.326;8.690;2023-03-04T15:47:08;25.30;;;8.45;;
78887;SDS011;68276;49.326;8.690;2023-03-04T15:49:37;24.30;;;8.70;;
78887;SDS011;68276;49.326;8.690;2023-03-04T15:52:03;29.08;;;9.30;;
78887;SDS011;68276;49.326;8.690;2023-03-04T15:54:30;24.73;;;8.20;;
78887;SDS011;68276;49.326;8.690;2023-03-04T15:56:55;20.33;;;8.13;;
78887;SDS011;68276;49.326;8.690;2023-03-04T15:59:22;23.77;;;8.18;;
78887;SDS011;68276;49.326;8.690;2023-03-04T16:01:48;26.40;;;9.00;;
78887;SDS011;68276;49.326;8.690;2023-03-04T16:04:14;25.98;;;9.63;;
78887;SDS011;68276;49.326;8.690;2023-03-04T16:06:41;24.83;;;9.10;;
78887;SDS011;68276;49.326;8.690;2023-03-04T16:09:09;28.48;;;10.23;;
78887;SDS011;68276;49.326;8.690;2023-03-04T16:11:38;25.60;;;9.13;;
78887;SDS011;68276;49.326;8.690;2023-03-04T16:14:08;25.98;;;10.18;;
78887;SDS011;68276;49.326;8.690;2023-03-04T16:16:35;26.35;;;9.85;;
78887;SDS011;68276;49.326;8.690;2023-03-04T16:19:00;29.67;;;10.10;;
78887;SDS011;68276;49.326;8.690;2023-03-04T16:21:26;28.27;;;10.20;;
78887;SDS011;68276;49.326;8.690;2023-03-04T16:23:51;26.55;;;9.18;;
78887;SDS011;68276;49.326;8.690;2023-03-04T16:26:22;25.42;;;9.85;;
78887;SDS011;68276;49.326;8.690;2023-03-04T16:28:49;28.75;;;8.65;;
78887;SDS011;68276;49.326;8.690;2023-03-04T16:31:16;24.23;;;8.82;;
78887;SDS011;68276;49.326;8.690;2023-03-04T16:33:42;21.83;;;8.38;;
78887;SDS011;68276;49.326;8.690;2023-03-04T16:38:44;25.35;;;8.73;;
78887;SDS011;68276;49.326;8.690;2023-03-04T16:41:10;25.00;;;8.85;;
78887;SDS011;68276;49.326;8.690;2023-03-04T16:43:38;24.83;;;7.88;;
78887;SDS011;68276;49.326;8.690;2023-03-04T16:46:04;30.70;;;10.90;;
78887;SDS011;68276;49.326;8.690;2023-03-04T16:48:30;27.17;;;9.40;;
78887;SDS011;68276;49.326;8.690;2023-03-04T16:50:55;24.55;;;8.63;;
78887;SDS011;68276;49.326;8.690;2023-03-04T16:53:36;27.83;;;8.75;;
78887;SDS011;68276;49.326;8.690;2023-03-04T16:56:05;27.70;;;8.88;;
78887;SDS011;68276;49.326;8.690;2023-03-04T16:58:35;28.80;;;10.70;;
78887;SDS011;68276;49.326;8.690;2023-03-04T17:01:01;25.40;;;9.43;;